sensor_id;sensor_type;location;lat;lon;timestamp;pressure;altitude;pressure_sealevel;temperature;humidity
51067;BME280;37112;45.892;-123.962;2023-07-31T00:02:10;102066.55;;;21.04;65.01
51067;BME280;37112;45.892;-123.962;2023-07-31T00:04:24;102066.06;;;21.01;65.17
51067;BME280;37112;45.892;-123.962;2023-07-31T00:06:38;102064.50;;;20.97;65.38
51067;BME280;37112;45.892;-123.962;2023-07-31T00:08:52;102061.16;;;20.99;66.03
51067;BME280;37112;45.892;-123.962;2023-07-31T00:11:06;102063.27;;;21.04;65.73
51067;BME280;37112;45.892;-123.962;2023-07-31T00:13:19;102059.59;;;20.97;65.44
51067;BME280;37112;45.892;-123.962;2023-07-31T00:15:33;102059.65;;;20.96;65.87
51067;BME280;37112;45.892;-123.962;2023-07-31T00:17:47;102060.45;;;20.98;65.94
51067;BME280;37112;45.892;-123.962;2023-07-31T00:20:00;102059.69;;;20.96;66.06
51067;BME280;37112;45.892;-123.962;2023-07-31T00:22:14;102058.94;;;21.04;66.33
51067;BME280;37112;45.892;-123.962;2023-07-31T00:24:28;102065.73;;;21.10;65.72
51067;BME280;37112;45.892;-123.962;2023-07-31T00:26:42;102065.56;;;21.11;65.23
51067;BME280;37112;45.892;-123.962;2023-07-31T00:28:56;102065.38;;;21.08;65.09
51067;BME280;37112;45.892;-123.962;2023-07-31T00:31:10;102064.40;;;21.02;65.02
51067;BME280;37112;45.892;-123.962;2023-07-31T00:33:24;102063.52;;;20.94;64.41
51067;BME280;37112;45.892;-123.962;2023-07-31T00:35:40;102064.39;;;20.92;65.38
51067;BME280;37112;45.892;-123.962;2023-07-31T00:37:54;102061.93;;;20.95;64.85
51067;BME280;37112;45.892;-123.962;2023-07-31T00:40:11;102061.39;;;20.93;63.85
51067;BME280;37112;45.892;-123.962;2023-07-31T00:42:25;102059.86;;;20.92;64.20
51067;BME280;37112;45.892;-123.962;2023-07-31T00:44:39;102055.06;;;20.87;63.50
51067;BME280;37112;45.892;-123.962;2023-07-31T00:46:52;102055.30;;;20.84;63.88
51067;BME280;37112;45.892;-123.962;2023-07-31T00:49:07;102058.80;;;20.82;63.95
51067;BME280;37112;45.892;-123.962;2023-07-31T00:51:22;102058.42;;;20.85;64.22
51067;BME280;37112;45.892;-123.962;2023-07-31T00:53:35;102062.65;;;20.91;64.01
51067;BME280;37112;45.892;-123.962;2023-07-31T00:55:52;102055.27;;;20.89;63.65
51067;BME280;37112;45.892;-123.962;2023-07-31T00:58:05;102052.47;;;20.88;62.38
51067;BME280;37112;45.892;-123.962;2023-07-31T01:00:22;102046.89;;;20.81;62.39
51067;BME280;37112;45.892;-123.962;2023-07-31T01:02:36;102051.60;;;20.79;63.37
51067;BME280;37112;45.892;-123.962;2023-07-31T01:04:50;102047.27;;;20.77;63.15
51067;BME280;37112;45.892;-123.962;2023-07-31T01:07:11;102046.08;;;20.73;62.40
51067;BME280;37112;45.892;-123.962;2023-07-31T01:09:33;102044.73;;;20.75;63.05
51067;BME280;37112;45.892;-123.962;2023-07-31T01:11:52;102043.02;;;20.80;63.39
51067;BME280;37112;45.892;-123.962;2023-07-31T01:14:10;102043.38;;;20.87;63.50
51067;BME280;37112;45.892;-123.962;2023-07-31T01:16:25;102042.92;;;20.87;63.53
51067;BME280;37112;45.892;-123.962;2023-07-31T01:18:38;102039.84;;;20.78;63.27
51067;BME280;37112;45.892;-123.962;2023-07-31T01:20:57;102037.36;;;20.71;63.41
51067;BME280;37112;45.892;-123.962;2023-07-31T01:23:51;102039.14;;;20.63;63.38
51067;BME280;37112;45.892;-123.962;2023-07-31T01:26:08;102044.79;;;20.52;63.73
51067;BME280;37112;45.892;-123.962;2023-07-31T01:28:29;102043.09;;;20.43;64.32
51067;BME280;37112;45.892;-123.962;2023-07-31T01:30:47;102043.05;;;20.37;64.19
51067;BME280;37112;45.892;-123.962;2023-07-31T01:33:02;102043.11;;;20.30;63.49
51067;BME280;37112;45.892;-123.962;2023-07-31T01:35:19;102047.50;;;20.23;64.51
51067;BME280;37112;45.892;-123.962;2023-07-31T01:37:33;102044.36;;;20.18;64.59
51067;BME280;37112;45.892;-123.962;2023-07-31T01:39:48;102046.92;;;20.22;64.38
51067;BME280;37112;45.892;-123.962;2023-07-31T01:42:01;102047.66;;;20.26;65.06
51067;BME280;37112;45.892;-123.962;2023-07-31T01:44:16;102046.88;;;20.26;63.23
51067;BME280;37112;45.892;-123.962;2023-07-31T01:46:30;102050.16;;;20.24;63.42
51067;BME280;37112;45.892;-123.962;2023-07-31T01:48:44;102049.42;;;20.24;64.15
51067;BME280;37112;45.892;-123.962;2023-07-31T01:50:58;102047.68;;;20.23;63.74
51067;BME280;37112;45.892;-123.962;2023-07-31T01:53:13;102050.67;;;20.18;63.25
51067;BME280;37112;45.892;-123.962;2023-07-31T01:55:27;102049.87;;;20.09;63.77
51067;BME280;37112;45.892;-123.962;2023-07-31T01:57:40;102051.37;;;20.08;63.73
51067;BME280;37112;45.892;-123.962;2023-07-31T01:59:53;102056.18;;;20.09;63.16
51067;BME280;37112;45.892;-123.962;2023-07-31T02:02:07;102053.57;;;20.10;62.31
51067;BME280;37112;45.892;-123.962;2023-07-31T02:04:21;102050.00;;;20.07;61.91
51067;BME280;37112;45.892;-123.962;2023-07-31T02:06:34;102056.19;;;20.09;62.31
51067;BME280;37112;45.892;-123.962;2023-07-31T02:08:49;102048.52;;;20.10;62.42
51067;BME280;37112;45.892;-123.962;2023-07-31T02:11:02;102052.02;;;20.09;62.62
51067;BME280;37112;45.892;-123.962;2023-07-31T02:13:15;102054.02;;;20.07;62.67
51067;BME280;37112;45.892;-123.962;2023-07-31T02:15:29;102057.85;;;20.02;63.26
51067;BME280;37112;45.892;-123.962;2023-07-31T02:17:42;102058.50;;;20.03;63.19
51067;BME280;37112;45.892;-123.962;2023-07-31T02:19:56;102058.27;;;19.97;63.41
51067;BME280;37112;45.892;-123.962;2023-07-31T02:22:11;102055.95;;;19.89;63.57
51067;BME280;37112;45.892;-123.962;2023-07-31T02:24:25;102058.46;;;19.83;64.22
51067;BME280;37112;45.892;-123.962;2023-07-31T02:26:40;102060.59;;;19.79;64.24
51067;BME280;37112;45.892;-123.962;2023-07-31T02:28:53;102062.21;;;19.70;64.50
51067;BME280;37112;45.892;-123.962;2023-07-31T02:31:07;102059.98;;;19.63;64.84
51067;BME280;37112;45.892;-123.962;2023-07-31T02:33:20;102059.75;;;19.63;64.97
51067;BME280;37112;45.892;-123.962;2023-07-31T02:35:33;102056.51;;;19.61;64.87
51067;BME280;37112;45.892;-123.962;2023-07-31T02:37:47;102057.83;;;19.60;65.16
51067;BME280;37112;45.892;-123.962;2023-07-31T02:40:01;102060.63;;;19.63;65.18
51067;BME280;37112;45.892;-123.962;2023-07-31T02:42:15;102063.29;;;19.64;65.03
51067;BME280;37112;45.892;-123.962;2023-07-31T02:44:29;102060.95;;;19.57;64.94
51067;BME280;37112;45.892;-123.962;2023-07-31T02:46:43;102073.05;;;19.55;64.94
51067;BME280;37112;45.892;-123.962;2023-07-31T02:48:56;102068.74;;;19.54;65.04
51067;BME280;37112;45.892;-123.962;2023-07-31T02:51:10;102066.02;;;19.55;64.95
51067;BME280;37112;45.892;-123.962;2023-07-31T02:53:24;102064.23;;;19.50;64.92
51067;BME280;37112;45.892;-123.962;2023-07-31T02:55:37;102065.06;;;19.47;65.08
51067;BME280;37112;45.892;-123.962;2023-07-31T02:57:51;102064.50;;;19.42;65.14
51067;BME280;37112;45.892;-123.962;2023-07-31T03:00:05;102065.61;;;19.36;64.89
51067;BME280;37112;45.892;-123.962;2023-07-31T03:02:20;102063.13;;;19.31;65.12
51067;BME280;37112;45.892;-123.962;2023-07-31T03:04:33;102061.97;;;19.30;65.66
51067;BME280;37112;45.892;-123.962;2023-07-31T03:06:46;102060.38;;;19.27;65.31
51067;BME280;37112;45.892;-123.962;2023-07-31T03:08:59;102064.06;;;19.25;65.13
51067;BME280;37112;45.892;-123.962;2023-07-31T03:11:12;102057.45;;;19.19;65.40
51067;BME280;37112;45.892;-123.962;2023-07-31T03:13:26;102058.05;;;19.12;65.23
51067;BME280;37112;45.892;-123.962;2023-07-31T03:15:39;102059.51;;;19.07;65.43
51067;BME280;37112;45.892;-123.962;2023-07-31T03:17:54;102059.98;;;19.04;65.52
51067;BME280;37112;45.892;-123.962;2023-07-31T03:20:10;102057.16;;;18.99;65.59
51067;BME280;37112;45.892;-123.962;2023-07-31T03:22:26;102059.51;;;18.94;65.79
51067;BME280;37112;45.892;-123.962;2023-07-31T03:24:39;102065.89;;;18.91;66.01
51067;BME280;37112;45.892;-123.962;2023-07-31T03:26:52;102066.84;;;18.88;66.14
51067;BME280;37112;45.892;-123.962;2023-07-31T03:29:06;102066.16;;;18.83;66.04
51067;BME280;37112;45.892;-123.962;2023-07-31T03:31:19;102070.56;;;18.78;66.27
51067;BME280;37112;45.892;-123.962;2023-07-31T03:33:32;102072.44;;;18.75;66.41
51067;BME280;37112;45.892;-123.962;2023-07-31T03:35:46;102071.55;;;18.72;66.46
51067;BME280;37112;45.892;-123.962;2023-07-31T03:37:59;102072.14;;;18.70;66.51
51067;BME280;37112;45.892;-123.962;2023-07-31T03:40:13;102069.24;;;18.65;66.63
51067;BME280;37112;45.892;-123.962;2023-07-31T03:42:27;102071.42;;;18.62;66.59
51067;BME280;37112;45.892;-123.962;2023-07-31T03:44:40;102070.23;;;18.59;66.80
51067;BME280;37112;45.892;-123.962;2023-07-31T03:46:54;102064.81;;;18.57;66.90
51067;BME280;37112;45.892;-123.962;2023-07-31T03:49:08;102068.23;;;18.53;66.81
51067;BME280;37112;45.892;-123.962;2023-07-31T03:51:24;102059.98;;;18.46;67.02
51067;BME280;37112;45.892;-123.962;2023-07-31T03:53:37;102058.30;;;18.40;67.21
51067;BME280;37112;45.892;-123.962;2023-07-31T03:55:50;102058.69;;;18.35;67.37
51067;BME280;37112;45.892;-123.962;2023-07-31T03:58:03;102059.38;;;18.33;67.61
51067;BME280;37112;45.892;-123.962;2023-07-31T04:00:18;102060.17;;;18.32;67.65
51067;BME280;37112;45.892;-123.962;2023-07-31T04:02:34;102057.19;;;18.31;67.76
51067;BME280;37112;45.892;-123.962;2023-07-31T04:04:47;102056.77;;;18.30;67.83
51067;BME280;37112;45.892;-123.962;2023-07-31T04:07:03;102062.02;;;18.29;67.95
51067;BME280;37112;45.892;-123.962;2023-07-31T04:09:18;102059.55;;;18.26;67.79
51067;BME280;37112;45.892;-123.962;2023-07-31T04:11:31;102056.59;;;18.23;67.70
51067;BME280;37112;45.892;-123.962;2023-07-31T04:13:45;102056.44;;;18.20;67.99
51067;BME280;37112;45.892;-123.962;2023-07-31T04:15:59;102053.92;;;18.18;67.87
51067;BME280;37112;45.892;-123.962;2023-07-31T04:18:12;102058.61;;;18.13;67.86
51067;BME280;37112;45.892;-123.962;2023-07-31T04:20:26;102060.80;;;18.08;67.88
51067;BME280;37112;45.892;-123.962;2023-07-31T04:22:40;102064.48;;;18.05;68.02
51067;BME280;37112;45.892;-123.962;2023-07-31T04:24:54;102067.15;;;18.00;68.04
51067;BME280;37112;45.892;-123.962;2023-07-31T04:27:09;102069.92;;;17.95;67.94
51067;BME280;37112;45.892;-123.962;2023-07-31T04:29:23;102071.63;;;17.89;67.95
51067;BME280;37112;45.892;-123.962;2023-07-31T04:31:38;102075.59;;;17.84;67.99
51067;BME280;37112;45.892;-123.962;2023-07-31T04:33:52;102075.98;;;17.79;68.14
51067;BME280;37112;45.892;-123.962;2023-07-31T04:36:11;102070.64;;;17.74;68.20
51067;BME280;37112;45.892;-123.962;2023-07-31T04:38:25;102075.66;;;17.69;68.18
51067;BME280;37112;45.892;-123.962;2023-07-31T04:40:39;102074.20;;;17.64;68.22
51067;BME280;37112;45.892;-123.962;2023-07-31T04:42:54;102074.27;;;17.59;68.23
51067;BME280;37112;45.892;-123.962;2023-07-31T04:45:09;102070.85;;;17.52;68.24
51067;BME280;37112;45.892;-123.962;2023-07-31T04:47:22;102073.48;;;17.47;68.47
51067;BME280;37112;45.892;-123.962;2023-07-31T04:49:36;102069.61;;;17.44;68.52
51067;BME280;37112;45.892;-123.962;2023-07-31T04:51:53;102071.07;;;17.39;68.47
51067;BME280;37112;45.892;-123.962;2023-07-31T04:54:06;102068.84;;;17.36;68.73
51067;BME280;37112;45.892;-123.962;2023-07-31T04:56:22;102068.92;;;17.32;68.59
51067;BME280;37112;45.892;-123.962;2023-07-31T04:58:36;102069.84;;;17.27;68.64
51067;BME280;37112;45.892;-123.962;2023-07-31T05:00:50;102068.24;;;17.22;68.82
51067;BME280;37112;45.892;-123.962;2023-07-31T05:03:04;102063.48;;;17.16;68.82
51067;BME280;37112;45.892;-123.962;2023-07-31T05:05:18;102064.38;;;17.11;68.86
51067;BME280;37112;45.892;-123.962;2023-07-31T05:07:32;102067.76;;;17.07;69.09
51067;BME280;37112;45.892;-123.962;2023-07-31T05:09:47;102069.45;;;17.01;68.96
51067;BME280;37112;45.892;-123.962;2023-07-31T05:12:16;102065.25;;;16.94;69.05
51067;BME280;37112;45.892;-123.962;2023-07-31T05:14:33;102066.84;;;16.90;69.31
51067;BME280;37112;45.892;-123.962;2023-07-31T05:16:49;102069.56;;;16.86;69.36
51067;BME280;37112;45.892;-123.962;2023-07-31T05:19:04;102066.17;;;16.82;69.58
51067;BME280;37112;45.892;-123.962;2023-07-31T05:21:24;102069.35;;;16.77;69.62
51067;BME280;37112;45.892;-123.962;2023-07-31T05:23:38;102062.80;;;16.74;69.76
51067;BME280;37112;45.892;-123.962;2023-07-31T05:26:06;102063.66;;;16.69;69.80
51067;BME280;37112;45.892;-123.962;2023-07-31T05:28:24;102061.49;;;16.64;69.69
51067;BME280;37112;45.892;-123.962;2023-07-31T05:30:40;102061.48;;;16.59;69.89
51067;BME280;37112;45.892;-123.962;2023-07-31T05:32:56;102059.48;;;16.55;69.96
51067;BME280;37112;45.892;-123.962;2023-07-31T05:35:12;102055.10;;;16.51;70.05
51067;BME280;37112;45.892;-123.962;2023-07-31T05:37:30;102055.48;;;16.48;70.33
51067;BME280;37112;45.892;-123.962;2023-07-31T05:39:44;102057.98;;;16.43;70.27
51067;BME280;37112;45.892;-123.962;2023-07-31T05:41:59;102056.02;;;16.40;70.40
51067;BME280;37112;45.892;-123.962;2023-07-31T05:44:12;102055.13;;;16.37;70.65
51067;BME280;37112;45.892;-123.962;2023-07-31T05:46:25;102054.29;;;16.34;70.80
51067;BME280;37112;45.892;-123.962;2023-07-31T05:48:39;102054.94;;;16.30;70.80
51067;BME280;37112;45.892;-123.962;2023-07-31T05:50:52;102048.60;;;16.26;70.92
51067;BME280;37112;45.892;-123.962;2023-07-31T05:53:07;102044.91;;;16.22;71.08
51067;BME280;37112;45.892;-123.962;2023-07-31T05:55:25;102043.35;;;16.20;71.21
51067;BME280;37112;45.892;-123.962;2023-07-31T05:57:39;102041.81;;;16.15;71.16
51067;BME280;37112;45.892;-123.962;2023-07-31T05:59:56;102040.88;;;16.11;71.35
51067;BME280;37112;45.892;-123.962;2023-07-31T06:02:15;102039.30;;;16.05;71.37
51067;BME280;37112;45.892;-123.962;2023-07-31T06:04:32;102036.64;;;16.02;71.54
51067;BME280;37112;45.892;-123.962;2023-07-31T06:06:48;102035.00;;;15.98;71.62
51067;BME280;37112;45.892;-123.962;2023-07-31T06:09:03;102031.85;;;15.94;71.67
51067;BME280;37112;45.892;-123.962;2023-07-31T06:11:18;102029.34;;;15.89;71.89
51067;BME280;37112;45.892;-123.962;2023-07-31T06:13:34;102034.31;;;15.87;72.14
51067;BME280;37112;45.892;-123.962;2023-07-31T06:15:54;102039.21;;;15.83;72.25
51067;BME280;37112;45.892;-123.962;2023-07-31T06:18:07;102033.98;;;15.81;72.36
51067;BME280;37112;45.892;-123.962;2023-07-31T06:20:25;102037.02;;;15.78;72.46
51067;BME280;37112;45.892;-123.962;2023-07-31T06:22:38;102035.68;;;15.75;72.60
51067;BME280;37112;45.892;-123.962;2023-07-31T06:24:52;102034.95;;;15.72;72.83
51067;BME280;37112;45.892;-123.962;2023-07-31T06:27:07;102034.92;;;15.70;72.82
51067;BME280;37112;45.892;-123.962;2023-07-31T06:29:26;102037.34;;;15.67;72.86
51067;BME280;37112;45.892;-123.962;2023-07-31T06:31:43;102035.75;;;15.63;73.06
51067;BME280;37112;45.892;-123.962;2023-07-31T06:34:03;102035.86;;;15.62;73.18
51067;BME280;37112;45.892;-123.962;2023-07-31T06:36:36;102034.05;;;15.59;73.18
51067;BME280;37112;45.892;-123.962;2023-07-31T06:38:50;102034.48;;;15.55;73.23
51067;BME280;37112;45.892;-123.962;2023-07-31T06:41:03;102035.61;;;15.52;73.38
51067;BME280;37112;45.892;-123.962;2023-07-31T06:43:16;102036.58;;;15.48;73.53
51067;BME280;37112;45.892;-123.962;2023-07-31T06:45:30;102037.29;;;15.45;73.57
51067;BME280;37112;45.892;-123.962;2023-07-31T06:47:56;102038.02;;;15.43;73.68
51067;BME280;37112;45.892;-123.962;2023-07-31T06:50:12;102033.67;;;15.41;73.79
51067;BME280;37112;45.892;-123.962;2023-07-31T06:52:26;102036.40;;;15.37;73.88
51067;BME280;37112;45.892;-123.962;2023-07-31T06:54:39;102032.27;;;15.35;74.04
51067;BME280;37112;45.892;-123.962;2023-07-31T06:56:52;102033.02;;;15.32;74.01
51067;BME280;37112;45.892;-123.962;2023-07-31T06:59:05;102033.92;;;15.29;74.15
51067;BME280;37112;45.892;-123.962;2023-07-31T07:01:18;102033.02;;;15.26;74.40
51067;BME280;37112;45.892;-123.962;2023-07-31T07:03:32;102026.52;;;15.24;74.52
51067;BME280;37112;45.892;-123.962;2023-07-31T07:05:45;102029.02;;;15.22;74.57
51067;BME280;37112;45.892;-123.962;2023-07-31T07:07:58;102027.99;;;15.19;74.56
51067;BME280;37112;45.892;-123.962;2023-07-31T07:10:12;102031.18;;;15.16;74.67
51067;BME280;37112;45.892;-123.962;2023-07-31T07:12:26;102026.52;;;15.14;74.75
51067;BME280;37112;45.892;-123.962;2023-07-31T07:14:39;102029.77;;;15.11;74.84
51067;BME280;37112;45.892;-123.962;2023-07-31T07:16:55;102029.55;;;15.08;74.88
51067;BME280;37112;45.892;-123.962;2023-07-31T07:19:08;102031.29;;;15.06;75.00
51067;BME280;37112;45.892;-123.962;2023-07-31T07:21:24;102026.55;;;15.05;75.12
51067;BME280;37112;45.892;-123.962;2023-07-31T07:23:46;102025.42;;;15.03;75.16
51067;BME280;37112;45.892;-123.962;2023-07-31T07:26:02;102029.90;;;15.00;75.20
51067;BME280;37112;45.892;-123.962;2023-07-31T07:28:15;102025.96;;;14.98;75.27
51067;BME280;37112;45.892;-123.962;2023-07-31T07:30:30;102025.08;;;14.95;75.40
51067;BME280;37112;45.892;-123.962;2023-07-31T07:32:43;102026.80;;;14.93;75.53
51067;BME280;37112;45.892;-123.962;2023-07-31T07:34:57;102030.24;;;14.90;75.47
51067;BME280;37112;45.892;-123.962;2023-07-31T07:37:11;102026.36;;;14.86;75.47
51067;BME280;37112;45.892;-123.962;2023-07-31T07:39:25;102023.48;;;14.84;75.61
51067;BME280;37112;45.892;-123.962;2023-07-31T07:41:38;102024.84;;;14.82;75.74
51067;BME280;37112;45.892;-123.962;2023-07-31T07:43:51;102023.23;;;14.80;75.81
51067;BME280;37112;45.892;-123.962;2023-07-31T07:46:04;102023.19;;;14.77;75.87
51067;BME280;37112;45.892;-123.962;2023-07-31T07:48:17;102023.23;;;14.73;75.95
51067;BME280;37112;45.892;-123.962;2023-07-31T07:50:31;102023.02;;;14.71;76.01
51067;BME280;37112;45.892;-123.962;2023-07-31T07:52:44;102023.70;;;14.69;76.01
51067;BME280;37112;45.892;-123.962;2023-07-31T07:54:57;102019.63;;;14.66;76.02
51067;BME280;37112;45.892;-123.962;2023-07-31T07:57:11;102021.41;;;14.63;76.21
51067;BME280;37112;45.892;-123.962;2023-07-31T07:59:24;102017.25;;;14.61;76.28
51067;BME280;37112;45.892;-123.962;2023-07-31T08:01:37;102016.65;;;14.59;76.44
51067;BME280;37112;45.892;-123.962;2023-07-31T08:03:50;102015.63;;;14.56;76.47
51067;BME280;37112;45.892;-123.962;2023-07-31T08:06:04;102018.66;;;14.56;76.73
51067;BME280;37112;45.892;-123.962;2023-07-31T08:08:19;102016.73;;;14.55;76.82
51067;BME280;37112;45.892;-123.962;2023-07-31T08:10:32;102019.27;;;14.55;76.86
51067;BME280;37112;45.892;-123.962;2023-07-31T08:12:45;102017.13;;;14.54;77.06
51067;BME280;37112;45.892;-123.962;2023-07-31T08:14:59;102018.75;;;14.54;77.15
51067;BME280;37112;45.892;-123.962;2023-07-31T08:17:12;102017.56;;;14.53;77.09
51067;BME280;37112;45.892;-123.962;2023-07-31T08:19:25;102014.64;;;14.52;77.16
51067;BME280;37112;45.892;-123.962;2023-07-31T08:21:38;102011.70;;;14.50;77.23
51067;BME280;37112;45.892;-123.962;2023-07-31T08:23:54;102014.64;;;14.49;77.37
51067;BME280;37112;45.892;-123.962;2023-07-31T08:26:06;102012.55;;;14.47;77.48
51067;BME280;37112;45.892;-123.962;2023-07-31T08:28:20;102015.31;;;14.46;77.56
51067;BME280;37112;45.892;-123.962;2023-07-31T08:30:32;102012.19;;;14.45;77.64
51067;BME280;37112;45.892;-123.962;2023-07-31T08:32:45;102015.00;;;14.42;77.66
51067;BME280;37112;45.892;-123.962;2023-07-31T08:34:59;102012.75;;;14.38;77.67
51067;BME280;37112;45.892;-123.962;2023-07-31T08:37:13;102014.67;;;14.36;77.84
51067;BME280;37112;45.892;-123.962;2023-07-31T08:39:27;102013.04;;;14.34;77.97
51067;BME280;37112;45.892;-123.962;2023-07-31T08:41:42;102011.81;;;14.34;78.21
51067;BME280;37112;45.892;-123.962;2023-07-31T08:43:56;102015.63;;;14.33;78.31
51067;BME280;37112;45.892;-123.962;2023-07-31T08:46:10;102013.99;;;14.30;78.31
51067;BME280;37112;45.892;-123.962;2023-07-31T08:48:26;102014.92;;;14.27;78.34
51067;BME280;37112;45.892;-123.962;2023-07-31T08:50:41;102017.17;;;14.22;78.30
51067;BME280;37112;45.892;-123.962;2023-07-31T08:52:55;102016.98;;;14.19;78.48
51067;BME280;37112;45.892;-123.962;2023-07-31T08:55:10;102016.02;;;14.18;78.61
51067;BME280;37112;45.892;-123.962;2023-07-31T08:57:31;102011.98;;;14.16;78.79
51067;BME280;37112;45.892;-123.962;2023-07-31T08:59:45;102013.88;;;14.15;78.84
51067;BME280;37112;45.892;-123.962;2023-07-31T09:02:01;102013.33;;;14.12;78.91
51067;BME280;37112;45.892;-123.962;2023-07-31T09:04:22;102012.04;;;14.10;79.00
51067;BME280;37112;45.892;-123.962;2023-07-31T09:07:00;102013.81;;;14.10;79.22
51067;BME280;37112;45.892;-123.962;2023-07-31T09:09:23;102013.71;;;14.09;79.28
51067;BME280;37112;45.892;-123.962;2023-07-31T09:11:49;102015.58;;;14.04;79.06
51067;BME280;37112;45.892;-123.962;2023-07-31T09:14:15;102013.92;;;13.99;79.14
51067;BME280;37112;45.892;-123.962;2023-07-31T09:16:32;102011.67;;;13.96;79.19
51067;BME280;37112;45.892;-123.962;2023-07-31T09:19:04;102012.02;;;13.92;79.33
51067;BME280;37112;45.892;-123.962;2023-07-31T09:21:20;102010.08;;;13.89;79.60
51067;BME280;37112;45.892;-123.962;2023-07-31T09:23:51;102003.38;;;13.88;79.75
51067;BME280;37112;45.892;-123.962;2023-07-31T09:26:14;102007.59;;;13.86;79.82
51067;BME280;37112;45.892;-123.962;2023-07-31T09:28:41;102006.06;;;13.85;79.95
51067;BME280;37112;45.892;-123.962;2023-07-31T09:30:57;102004.89;;;13.83;80.06
51067;BME280;37112;45.892;-123.962;2023-07-31T09:33:18;102001.06;;;13.82;80.14
51067;BME280;37112;45.892;-123.962;2023-07-31T09:35:35;101997.01;;;13.81;80.33
51067;BME280;37112;45.892;-123.962;2023-07-31T09:38:02;101997.45;;;13.80;80.39
51067;BME280;37112;45.892;-123.962;2023-07-31T09:40:38;101994.29;;;13.79;80.50
51067;BME280;37112;45.892;-123.962;2023-07-31T09:42:54;101996.87;;;13.78;80.56
51067;BME280;37112;45.892;-123.962;2023-07-31T09:45:13;101995.33;;;13.77;80.67
51067;BME280;37112;45.892;-123.962;2023-07-31T09:47:36;101992.29;;;13.77;80.72
51067;BME280;37112;45.892;-123.962;2023-07-31T09:49:54;101994.83;;;13.76;80.80
51067;BME280;37112;45.892;-123.962;2023-07-31T09:52:16;101990.41;;;13.75;80.88
51067;BME280;37112;45.892;-123.962;2023-07-31T09:54:33;101993.28;;;13.75;80.91
51067;BME280;37112;45.892;-123.962;2023-07-31T09:56:51;101992.05;;;13.72;80.88
51067;BME280;37112;45.892;-123.962;2023-07-31T09:59:10;101992.13;;;13.71;80.89
51067;BME280;37112;45.892;-123.962;2023-07-31T10:01:33;101993.63;;;13.70;81.01
51067;BME280;37112;45.892;-123.962;2023-07-31T10:03:50;101990.77;;;13.70;81.14
51067;BME280;37112;45.892;-123.962;2023-07-31T10:06:05;101992.93;;;13.69;81.19
51067;BME280;37112;45.892;-123.962;2023-07-31T10:08:26;101987.95;;;13.69;81.27
51067;BME280;37112;45.892;-123.962;2023-07-31T10:10:49;101993.19;;;13.68;81.21
51067;BME280;37112;45.892;-123.962;2023-07-31T10:13:06;101993.65;;;13.65;81.17
51067;BME280;37112;45.892;-123.962;2023-07-31T10:15:30;101993.22;;;13.64;81.19
51067;BME280;37112;45.892;-123.962;2023-07-31T10:17:55;101995.98;;;13.63;81.29
51067;BME280;37112;45.892;-123.962;2023-07-31T10:20:21;101996.98;;;13.61;81.34
51067;BME280;37112;45.892;-123.962;2023-07-31T10:22:43;101998.41;;;13.61;81.48
51067;BME280;37112;45.892;-123.962;2023-07-31T10:25:03;101998.38;;;13.58;81.45
51067;BME280;37112;45.892;-123.962;2023-07-31T10:27:17;101996.71;;;13.56;81.57
51067;BME280;37112;45.892;-123.962;2023-07-31T10:29:34;101996.92;;;13.56;81.73
51067;BME280;37112;45.892;-123.962;2023-07-31T10:31:49;101995.50;;;13.56;81.75
51067;BME280;37112;45.892;-123.962;2023-07-31T10:34:05;101997.89;;;13.55;81.83
51067;BME280;37112;45.892;-123.962;2023-07-31T10:36:19;101997.92;;;13.54;81.89
51067;BME280;37112;45.892;-123.962;2023-07-31T10:38:33;101995.30;;;13.53;82.05
51067;BME280;37112;45.892;-123.962;2023-07-31T10:40:46;101994.55;;;13.53;82.11
51067;BME280;37112;45.892;-123.962;2023-07-31T10:42:59;101997.21;;;13.51;82.08
51067;BME280;37112;45.892;-123.962;2023-07-31T10:45:14;102000.89;;;13.49;82.19
51067;BME280;37112;45.892;-123.962;2023-07-31T10:47:39;102005.52;;;13.50;82.42
51067;BME280;37112;45.892;-123.962;2023-07-31T10:49:56;102002.85;;;13.49;82.43
51067;BME280;37112;45.892;-123.962;2023-07-31T10:52:24;102005.77;;;13.48;82.49
51067;BME280;37112;45.892;-123.962;2023-07-31T10:54:38;102011.13;;;13.48;82.55
51067;BME280;37112;45.892;-123.962;2023-07-31T10:56:52;102014.18;;;13.48;82.58
51067;BME280;37112;45.892;-123.962;2023-07-31T10:59:05;102016.73;;;13.47;82.66
51067;BME280;37112;45.892;-123.962;2023-07-31T11:01:18;102016.23;;;13.46;82.64
51067;BME280;37112;45.892;-123.962;2023-07-31T11:03:44;102014.65;;;13.46;82.76
51067;BME280;37112;45.892;-123.962;2023-07-31T11:06:02;102018.37;;;13.47;82.88
51067;BME280;37112;45.892;-123.962;2023-07-31T11:08:18;102019.63;;;13.46;82.94
51067;BME280;37112;45.892;-123.962;2023-07-31T11:10:32;102016.96;;;13.47;83.04
51067;BME280;37112;45.892;-123.962;2023-07-31T11:12:45;102016.08;;;13.46;83.02
51067;BME280;37112;45.892;-123.962;2023-07-31T11:14:59;102015.91;;;13.46;83.10
51067;BME280;37112;45.892;-123.962;2023-07-31T11:17:14;102014.70;;;13.45;83.26
51067;BME280;37112;45.892;-123.962;2023-07-31T11:19:28;102016.50;;;13.45;83.20
51067;BME280;37112;45.892;-123.962;2023-07-31T11:21:42;102015.77;;;13.45;83.33
51067;BME280;37112;45.892;-123.962;2023-07-31T11:23:57;102017.04;;;13.45;83.40